VOBZ/VGA METAR and TAF weather

Enter ICAO airport designator
Station Type Date Time Source
VOBZ METAR 2022/12/10 01:30 UTC NOAA

VOBZ 100130Z 02006KT 2500 BR SCT020 BKN100 22/21 Q1008 NOSIG


Station Type Date Time Source
VOBZ Decoded METAR 2022/12/10 01:30 UTC NOAA

Vijayawada / Gannavaram, India (VOBZ) 16-32N 080-48E 24M
Dec 09, 2022 - 08:30 PM EST / 2022.12.10 0130 UTC
Wind: from the NNE (020 degrees) at 7 MPH (6 KT):0
Visibility: 1 mile(s):0
Sky conditions: mostly cloudy
Weather: mist
Temperature: 71 F (22 C)
Dew Point: 69 F (21 C)
Relative Humidity: 94%
Pressure (altimeter): 29.77 in. Hg (1008 hPa)
ob: VOBZ 100130Z 02006KT 2500 BR SCT020 BKN100 22/21 Q1008 NOSIG
cycle: 1

Station Type Date Time Source
VOBZ TAF 2022/12/09 18:00 UTC NOAA

TAF VOBZ 091700Z 0918/1024 05006KT 3000 DZ BR SCT015 SCT100
TEMPO 1000/1003 00000KT 0800 MIFG SCT010 SCT015
BECMG 1004/1006 08006KT 3000 HZ BR SCT015 SCT100
TEMPO 1010/1016 5000 DZ HZ SCT015 BKN080
BECMG 1018/1020 05006KT 3000 HZ BR SCT015 SCT100

Example: see airport list